createdAt,value
2018-02-27T00:02:21.344Z,81.6
2018-02-27T00:07:21.552Z,80.4
2018-02-27T00:12:21.311Z,80.2
2018-02-27T00:17:21.340Z,80
2018-02-27T00:22:21.567Z,80.5
2018-02-27T00:27:21.375Z,81.8
2018-02-27T00:32:21.494Z,81.6
2018-02-27T00:37:21.661Z,81
2018-02-27T00:42:21.678Z,80.6
2018-02-27T00:47:21.468Z,80.9
2018-02-27T00:52:21.384Z,81.7
2018-02-27T00:57:21.596Z,80.4
2018-02-27T01:02:21.504Z,79.9
2018-02-27T01:07:21.624Z,79.3
2018-02-27T01:12:21.595Z,79.4
2018-02-27T01:17:21.521Z,79.2
2018-02-27T01:22:21.549Z,78
2018-02-27T01:27:21.535Z,75.8
2018-02-27T01:32:21.582Z,75.7
2018-02-27T01:37:21.660Z,76.3
2018-02-27T01:42:21.480Z,77.6
2018-02-27T01:47:21.487Z,77.6
2018-02-27T01:52:21.477Z,77.9
2018-02-27T01:57:21.703Z,78.3
2018-02-27T02:02:21.650Z,78.7
2018-02-27T02:07:21.679Z,78.3
2018-02-27T02:12:21.649Z,76
2018-02-27T02:17:21.843Z,73.7
2018-02-27T02:22:21.765Z,73.3
2018-02-27T02:27:21.649Z,73.8
2018-02-27T02:32:21.843Z,71.6
2018-02-27T02:37:21.640Z,70.7
2018-02-27T02:42:21.799Z,69.8
2018-02-27T02:47:21.863Z,70.3
2018-02-27T02:52:21.647Z,69.2
2018-02-27T02:57:21.676Z,71.4
2018-02-27T03:02:21.826Z,70.3
2018-02-27T03:07:21.863Z,70.2
2018-02-27T03:12:21.793Z,69
2018-02-27T03:17:21.835Z,68.6
2018-02-27T03:22:21.876Z,67.8
2018-02-27T03:27:21.798Z,68.9
2018-02-27T03:32:21.827Z,70.2
2018-02-27T03:37:21.887Z,68.3
2018-02-27T03:42:21.926Z,68.2
2018-02-27T03:47:21.865Z,69.5
2018-02-27T03:52:21.682Z,66.6
2018-02-27T03:57:21.679Z,66.6
2018-02-27T04:02:21.830Z,67.7
2018-02-27T04:07:21.827Z,67.1
2018-02-27T04:12:21.903Z,66.1
2018-02-27T04:17:21.689Z,66.4
2018-02-27T04:22:21.850Z,66.3
2018-02-27T04:27:21.893Z,66.6
2018-02-27T04:32:21.699Z,68.6
2018-02-27T04:37:25.229Z,69.6
2018-02-27T04:42:30.330Z,69.8
2018-02-27T04:47:25.423Z,69.2
2018-02-27T04:52:25.445Z,69.5
2018-02-27T04:57:25.248Z,69.5
2018-02-27T05:02:25.245Z,68.7
2018-02-27T05:07:25.451Z,68.5
2018-02-27T05:12:25.476Z,69.8
2018-02-27T05:17:25.445Z,69.4
2018-02-27T05:22:25.221Z,68.9
2018-02-27T05:27:25.490Z,69.7
2018-02-27T05:32:25.253Z,68.5
2018-02-27T05:37:25.264Z,69.1
2018-02-27T05:42:25.269Z,68.2
2018-02-27T05:47:25.270Z,68.8
2018-02-27T05:52:25.275Z,68.5
2018-02-27T05:57:25.485Z,67.3
2018-02-27T06:02:25.284Z,66.8
2018-02-27T06:07:25.332Z,66.7
2018-02-27T06:12:25.481Z,66.7
2018-02-27T06:17:25.446Z,66.7
2018-02-27T06:22:25.426Z,66.3
2018-02-27T06:27:25.538Z,66.3
2018-02-27T06:32:25.281Z,66
2018-02-27T06:37:25.522Z,66.7
2018-02-27T06:42:25.489Z,69
2018-02-27T06:47:25.525Z,69.6
2018-02-27T06:52:25.421Z,70.2
2018-02-27T06:57:25.464Z,70.1
2018-02-27T07:02:25.509Z,70.3
2018-02-27T07:07:25.533Z,70.7
2018-02-27T07:12:25.324Z,70.4
2018-02-27T07:17:25.517Z,69.8
2018-02-27T07:22:25.538Z,70.7
2018-02-27T07:27:25.431Z,69
2018-02-27T07:32:25.508Z,69.6
2018-02-27T07:37:25.542Z,68.9
2018-02-27T07:42:25.618Z,68.4
2018-02-27T07:47:25.356Z,69
2018-02-27T07:52:25.587Z,70.6
2018-02-27T07:57:25.620Z,69.7
2018-02-27T08:02:25.366Z,69.3
2018-02-27T08:07:25.545Z,70.9
2018-02-27T08:12:25.354Z,69.7
2018-02-27T08:17:25.488Z,67.2
2018-02-27T08:22:25.544Z,67.8
2018-02-27T08:27:25.559Z,66.1
2018-02-27T08:32:25.542Z,64.9
2018-02-27T08:37:25.533Z,67.6
2018-02-27T08:42:25.564Z,66.2
2018-02-27T08:47:25.696Z,65.3
2018-02-27T08:52:25.754Z,64.3
2018-02-27T08:57:25.776Z,62.3
2018-02-27T09:02:25.729Z,61.5
2018-02-27T09:07:25.541Z,61.2
2018-02-27T09:12:25.481Z,60.4
2018-02-27T09:17:25.722Z,59.7
2018-02-27T09:22:25.525Z,60.8
2018-02-27T09:27:30.500Z,59.6
2018-02-27T09:32:35.831Z,58.9
2018-02-27T09:37:30.624Z,58.5
2018-02-27T09:42:30.693Z,56.5
2018-02-27T09:47:30.665Z,56.1
2018-02-27T09:52:30.528Z,54.7
2018-02-27T09:57:30.699Z,55.5
2018-02-27T10:02:30.778Z,56.4
2018-02-27T10:07:30.970Z,56
2018-02-27T10:12:30.892Z,55.2
2018-02-27T10:17:30.885Z,53.9
2018-02-27T10:22:30.764Z,53
2018-02-27T10:27:31.242Z,50.6
2018-02-27T10:32:30.813Z,52.4
2018-02-27T10:37:30.935Z,50.6
2018-02-27T10:42:31.025Z,51.5
2018-02-27T10:47:30.807Z,50.6
2018-02-27T10:52:30.952Z,51.7
2018-02-27T10:57:31.119Z,49.8
2018-02-27T11:02:30.990Z,49.2
2018-02-27T11:07:31.039Z,48.3
2018-02-27T11:12:30.986Z,49.9
2018-02-27T11:17:31.004Z,49.4
2018-02-27T11:22:31.032Z,53.2
2018-02-27T11:27:31.186Z,54.6
2018-02-27T11:32:31.210Z,55.9
2018-02-27T11:37:30.956Z,54.6
2018-02-27T11:42:30.994Z,53.3
2018-02-27T11:47:31.233Z,54.2
2018-02-27T11:52:30.992Z,52.8
2018-02-27T11:57:31.189Z,54.2
2018-02-27T12:02:31.223Z,58.8
2018-02-27T12:07:31.192Z,61.1
2018-02-27T12:12:31.016Z,58.1
2018-02-27T12:17:31.195Z,57.6
2018-02-27T12:22:31.393Z,56.9
2018-02-27T12:27:31.279Z,55.6
2018-02-27T12:32:31.152Z,54.5
2018-02-27T12:37:31.158Z,51.8
2018-02-27T12:42:31.173Z,54.4
2018-02-27T12:47:31.256Z,50.3
2018-02-27T12:52:31.246Z,53.5
2018-02-27T12:57:31.256Z,54.4
2018-02-27T13:02:31.420Z,53.5
2018-02-27T13:07:31.640Z,52.4
2018-02-27T13:12:31.610Z,52.2
2018-02-27T13:17:31.632Z,52.3
2018-02-27T13:22:31.648Z,51.2
2018-02-27T13:27:31.608Z,51.6
2018-02-27T13:32:31.632Z,54.1
2018-02-27T13:37:31.887Z,56.1
2018-02-27T13:42:31.816Z,58
2018-02-27T13:47:31.951Z,59.7
2018-02-27T13:52:32.018Z,57.3
2018-02-27T13:57:31.810Z,56.6
2018-02-27T14:02:32.018Z,56.6
2018-02-27T14:07:31.808Z,57.5
2018-02-27T14:12:31.829Z,56.7
2018-02-27T14:17:31.865Z,55
2018-02-27T14:22:37.352Z,52.9
2018-02-27T14:27:42.441Z,58.8
2018-02-27T14:32:37.245Z,61.6
2018-02-27T14:37:37.278Z,62.3
2018-02-27T14:42:37.339Z,62.5
2018-02-27T14:47:37.340Z,61.9
2018-02-27T14:52:37.274Z,63.1
2018-02-27T14:57:37.349Z,62
2018-02-27T15:02:37.243Z,62.2
2018-02-27T15:07:37.281Z,64.8
2018-02-27T15:12:37.132Z,65.8
2018-02-27T15:17:37.613Z,64.8
2018-02-27T15:22:37.370Z,64.1
2018-02-27T15:27:37.802Z,66.3
2018-02-27T15:32:38.940Z,67.2
2018-02-27T15:37:37.579Z,66.4
2018-02-27T15:42:37.577Z,67.3
2018-02-27T15:47:37.766Z,68.7
2018-02-27T15:52:37.815Z,67.8
2018-02-27T15:57:37.723Z,68.3
2018-02-27T16:02:37.750Z,68.2
2018-02-27T16:07:37.805Z,67
2018-02-27T16:12:37.604Z,67.7
2018-02-27T16:17:55.712Z,68.7
2018-02-27T16:22:45.747Z,68.2
2018-02-27T16:27:45.730Z,68.3
2018-02-27T16:32:49.180Z,68.1
2018-02-27T16:37:45.706Z,68.8
2018-02-27T16:42:46.320Z,69.5
2018-02-27T16:47:45.730Z,68.6
2018-02-27T16:52:45.810Z,69
2018-02-27T16:57:47.185Z,69.2
2018-02-27T17:02:45.803Z,69.8
2018-02-27T17:07:45.810Z,69.3
2018-02-27T17:12:45.873Z,69.4
2018-02-27T17:17:45.945Z,69.2
2018-02-27T17:22:46.048Z,69.7
2018-02-27T17:27:46.380Z,70.9
2018-02-27T17:32:45.880Z,71.2
2018-02-27T17:37:45.916Z,70.6
2018-02-27T17:42:45.932Z,71.4
2018-02-27T17:47:49.047Z,70.5
2018-02-27T17:52:46.084Z,69.7
2018-02-27T17:57:47.585Z,69.5
2018-02-27T18:02:46.315Z,69.1
2018-02-27T18:07:46.752Z,69.3
2018-02-27T18:12:45.901Z,69.6
2018-02-27T18:17:48.126Z,69.3
2018-02-27T18:22:46.511Z,69.5
2018-02-27T18:27:46.918Z,70
2018-02-27T18:32:46.737Z,70.3
2018-02-27T18:37:46.060Z,71.1
2018-02-27T18:42:45.924Z,71.7
2018-02-27T18:47:45.923Z,71.9
2018-02-27T18:52:46.042Z,71.4
2018-02-27T18:57:45.950Z,72.7
2018-02-27T19:02:45.916Z,72.1
2018-02-27T19:07:45.911Z,72.3
2018-02-27T19:12:49.742Z,72.9
2018-02-27T19:17:53.275Z,73
2018-02-27T19:22:48.191Z,73.7
2018-02-27T19:27:49.382Z,74.4
2018-02-27T19:32:48.295Z,74.1
2018-02-27T19:37:48.174Z,74.1
2018-02-27T19:42:48.359Z,73.6
2018-02-27T19:47:48.168Z,73.9
2018-02-27T19:52:48.289Z,74
2018-02-27T19:57:48.329Z,73.9
2018-02-27T20:02:48.187Z,74.9
2018-02-27T20:07:48.186Z,74.3
2018-02-27T20:12:48.375Z,74.4
2018-02-27T20:17:48.399Z,74.2
2018-02-27T20:22:48.315Z,74.6
2018-02-27T20:27:48.295Z,74.3
2018-02-27T20:32:48.386Z,75.1
2018-02-27T20:37:48.747Z,75.1
2018-02-27T20:42:48.657Z,73.9
2018-02-27T20:47:48.759Z,73.8
2018-02-27T20:52:48.666Z,74.6
2018-02-27T20:57:48.985Z,73.2
2018-02-27T21:02:49.004Z,73.2
2018-02-27T21:07:49.161Z,73.9
2018-02-27T21:12:49.175Z,72.9
2018-02-27T21:17:49.230Z,72.7
2018-02-27T21:22:49.440Z,73
2018-02-27T21:27:49.244Z,73.8
2018-02-27T21:32:49.417Z,74.8
2018-02-27T21:37:49.466Z,74.4
2018-02-27T21:42:49.281Z,74.7
2018-02-27T21:47:49.345Z,74.5
2018-02-27T21:52:49.377Z,74.9
2018-02-27T21:57:49.597Z,74.9
2018-02-27T22:02:49.365Z,75.7
2018-02-27T22:07:49.643Z,75
2018-02-27T22:12:49.634Z,75.1
2018-02-27T22:17:49.658Z,74.6
2018-02-27T22:22:49.852Z,75.2
2018-02-27T22:27:49.788Z,75.8
2018-02-27T22:32:49.806Z,75.2
2018-02-27T22:37:49.849Z,75.8
2018-02-27T22:42:49.687Z,74.7
2018-02-27T22:47:49.808Z,75.3
2018-02-27T22:52:49.729Z,75.5
2018-02-27T22:57:49.882Z,75.9
2018-02-27T23:02:49.666Z,75.9
2018-02-27T23:07:49.668Z,75.4
2018-02-27T23:12:49.879Z,75.1
2018-02-27T23:17:49.919Z,75.3
2018-02-27T23:22:49.886Z,76
2018-02-27T23:27:49.931Z,76.4
2018-02-27T23:32:49.907Z,76
2018-02-27T23:37:49.970Z,76.8
2018-02-27T23:42:49.878Z,76.7
2018-02-27T23:47:50.009Z,77.2
2018-02-27T23:52:49.864Z,77.1
2018-02-27T23:57:50.094Z,77.4
